Accueil
METAR-TAF:

METAR-TAF

Aéroports :

Logroño, Espagne

Aérodrome de Logrogne

latitude: 42-27N, longitude: 002-20W, altitude: 353 m

Observation

Le bulletin a été fait il y a 6 heures et 45 minutes, à 21:00 UTC
Vent 2 kt de direction variable
Température 15°C
Humidité 88%
Pression 1018 hPa
Visibilité 10 km ou plus
Quelques nuages à une hauteur de 5000 ft

METAR: LELO 222100Z VRB02KT 9999 FEW050 15/13 Q1018

Heure: 05:45 (03:45 UTC)

Prévision

Le bulletin a été fait il y a 1 heure et 45 minutes, à 02:00 UTC
Prévision valable du 23 à 03 UTC au 23 à 12 UTC
Vent 4 kt de direction variable
Visibilité 10 km ou plus
pas de nuages en-dessous de 1500 mètres et pas de cumulonimbus.
Probabilité 30% :
Temporairement
du 23 à 09 UTC au 23 à 12 UTC
Nuages épars à une hauteur de 3000 ft, Cumulus congestus.
averses de pluie

TAF: LELO 230200Z 2303/2312 VRB04KT CAVOK PROB30 TEMPO 2309/2312 SHRA SCT030TCU

Observations et prévisions météorologiques de plus de 4000 aéroports (messages METAR et TAF).

Les stations disponibles sont représentées par des disques jaunes et rouges sur la carte.

Passer la souris dessus pour voir le nom de la station.

Cliquer dessus pour voir les observations et prévisions météorologiques.

Pour changer de carte: cliquez sur les boutons verts avec une croix noire pour zoomer, sur le bouton vert avec un tiret pour effectuer un zoom arrière, ou sur les flèches vertes pour les cartes adjacentes.


METAR-TAF: